Aviation Digital Data Service (ADDS)

Output produced by TAFs form (1817 UTC 28 April 2015)
found at http://www.aviationweather.gov/adds/tafs/
 
KPSF 281726Z 2818/2918 34011G22KT P6SM FEW050 
     FM290000 31008KT P6SM SCT045 BKN200 
     FM290900 29006KT P6SM FEW040 SCT200 
     FM291300 31009KT P6SM FEW050